Flight Track Log - Related Links

Times and Time Zones

All times are in EDT time to prevent confusion due to time zone crossing. See the CPT8773 flight status page for this flight to view local times or setup timezone preferences in your user account.

Time Position Orientation Groundspeed Altitude Reporting Facility
EDT Latitude Longitude Course Direction KTS MPH feet Rate Location/Type
Thu 09:05:08 AM 42.9931 -106.4708 347° North 110 127 7,400  Level Denver Center
Thu 09:06:09 AM 43.0219 -106.4772 351° North 110 127 7,800 541 Climbing Denver Center
Thu 09:07:10 AM 43.0572 -106.4881 347° North 113 130 8,500 492 Climbing Denver Center
Thu 09:08:00 AM 43.0452 -106.6735 307° West  Level Estimated
Thu 09:08:11 AM 43.0883 -106.4978 347° North 115 132 8,800  Level Denver Center
Thu 09:09:00 AM 43.0853 -106.6857 347° North  Level FlightAware Approximate
Thu 09:09:12 AM 43.1281 -106.5053 352° North 122 140 9,400  Level Denver Center
Thu 09:10:00 AM 43.1254 -106.6980 347° North  Level FlightAware Approximate
Thu 09:10:13 AM 43.1622 -106.5114 353° North 125 144 9,700  Level Denver Center
Thu 09:11:14 AM 43.1972 -106.5164 354° North 128 147 10,000 344 Climbing Denver Center
Thu 09:12:15 AM 43.2397 -106.5258 351° North 133 153 10,400 344 Climbing Denver Center
Thu 09:13:16 AM 43.2614 -106.5556 315° West 144 166 10,700 246 Climbing Denver Center
Thu 09:14:17 AM 43.2772 -106.5983 297° West 135 155 10,900 197 Climbing Denver Center
Thu 09:15:18 AM 43.2964 -106.6489 298° West 134 154 11,100 197 Climbing Denver Center
Thu 09:16:19 AM 43.3156 -106.6908 302° West 136 157 11,300 198 Climbing Denver Center
Thu 09:17:19 AM 43.3311 -106.7375 295° West 138 159 11,500 144 Climbing Denver Center
Thu 09:18:24 AM 43.3558 -106.7858 305° West 138 159 11,600 144 Climbing Salt Lake Center
Thu 09:19:24 AM 43.3781 -106.8269 307° West 140 161 11,800 198 Climbing Salt Lake Center
Thu 09:20:25 AM 43.4031 -106.8758 305° West 140 161 12,000 98 Climbing Salt Lake Center
Thu 09:21:26 AM 43.4256 -106.9186 306° West 143 165 12,000 -49 Level Salt Lake Center
Thu 09:22:27 AM 43.4486 -106.9614 307° West 148 170 11,900  Descending Salt Lake Center
Thu 09:23:28 AM 43.4739 -107.0053 308° West 148 170 12,000 49 Climbing Salt Lake Center
Thu 09:24:29 AM 43.4967 -107.0494 305° West 143 165 12,000  Level Salt Lake Center
Thu 09:25:30 AM 43.5247 -107.1061 304° West 147 169 12,000  Level Salt Lake Center
Thu 09:26:31 AM 43.5492 -107.1525 306° West 149 171 12,000  Level Salt Lake Center
Thu 09:27:32 AM 43.5733 -107.1958 308° West 146 168 12,000  Level Salt Lake Center
Thu 09:28:33 AM 43.5969 -107.2406 306° West 145 167 12,000  Level Salt Lake Center
Thu 09:29:34 AM 43.6208 -107.2864 306° West 145 167 12,000  Level Salt Lake Center
Thu 09:30:36 AM 43.6439 -107.3319 305° West 146 168 12,000  Level Salt Lake Center
Thu 09:31:37 AM 43.6664 -107.3769 305° West 144 166 12,000  Level Salt Lake Center
Thu 09:32:38 AM 43.6875 -107.4225 303° West 143 165 12,000  Level Salt Lake Center
Thu 09:33:39 AM 43.7108 -107.4661 307° West 142 163 12,000  Level Salt Lake Center
Thu 09:34:40 AM 43.7342 -107.5119 305° West 143 165 12,000 -98 Level Salt Lake Center
Thu 09:35:41 AM 43.7583 -107.5581 306° West 145 167 11,800 -197 Descending Salt Lake Center
Thu 09:36:42 AM 43.7894 -107.6153 307° West 150 173 11,600 -197 Descending Salt Lake Center
Thu 09:37:43 AM 43.8139 -107.6628 306° West 152 175 11,400 -244 Descending Salt Lake Center
Thu 09:38:45 AM 43.8383 -107.7097 306° West 151 174 11,100 -293 Descending Salt Lake Center
Thu 09:39:46 AM 43.8625 -107.7564 306° West 151 174 10,800 -246 Descending Salt Lake Center
Thu 09:40:47 AM 43.8869 -107.8042 305° West 151 174 10,600 -148 Descending Salt Lake Center
Thu 09:41:48 AM 43.9122 -107.8525 306° West 153 176 10,500 -49 Descending Salt Lake Center
Thu 09:42:50 AM 43.9344 -107.8992 303° West 150 173 10,500  Level Salt Lake Center
Thu 09:43:51 AM 43.9561 -107.9450 303° West 147 169 10,500  Level Salt Lake Center
Thu 09:44:52 AM 43.9828 -107.9886 310° West 147 169 10,500  Level Salt Lake Center
Thu 09:45:53 AM 44.0119 -108.0303 314° West 148 170 10,500  Level Salt Lake Center
Thu 09:46:55 AM 44.0472 -108.0836 313° West 152 175 10,500  Level Salt Lake Center
Thu 09:47:56 AM 44.0758 -108.1278 312° West 153 176 10,500  Level Salt Lake Center
Thu 09:48:57 AM 44.1036 -108.1714 312° West 153 176 10,500  Level Salt Lake Center
Thu 09:49:59 AM 44.1322 -108.2133 314° West 151 174 10,500  Level Salt Lake Center
Thu 09:51:00 AM 44.1606 -108.2561 313° West 151 174 10,500  Level Salt Lake Center
Thu 09:52:02 AM 44.1894 -108.3006 312° West 152 175 10,500  Level Salt Lake Center
Thu 09:53:03 AM 44.2169 -108.3458 310° West 152 175 10,500  Level Salt Lake Center
Thu 09:54:04 AM 44.2456 -108.3889 313° West 152 175 10,500  Level Salt Lake Center
Thu 09:55:06 AM 44.2742 -108.4333 312° West 153 176 10,500  Level Salt Lake Center
Thu 09:56:07 AM 44.3033 -108.4764 313° West 153 176 10,500  Level Salt Lake Center
Thu 09:57:09 AM 44.3403 -108.5250 317° Northwest 153 176 10,500 -146 Level Salt Lake Center
Thu 09:58:10 AM 44.3828 -108.5461 340° North 158 182 10,200 -293 Descending Salt Lake Center
Thu 09:59:12 AM 44.4250 -108.5733 335° Northwest 162 186 9,900 -341 Descending Salt Lake Center
Thu 10:00:13 AM 44.4689 -108.6008 336° Northwest 167 192 9,500 -443 Descending Salt Lake Center
Thu 10:01:14 AM 44.5142 -108.6300 335° Northwest 172 198 9,000 -244 Descending Salt Lake Center
Thu 10:02:16 AM 44.5564 -108.6589 334° Northwest 172 198 9,000 -98 Level Salt Lake Center
Thu 10:03:17 AM 44.5939 -108.6900 329° Northwest 166 191 8,800 -341 Descending Salt Lake Center
Thu 10:04:19 AM 44.6286 -108.7278 322° Northwest 162 186 8,300 -390 Descending Salt Lake Center
Thu 10:05:20 AM 44.6517 -108.7719 306° West 164 189 8,000 -341 Descending Salt Lake Center
Thu 10:06:22 AM 44.6317 -108.8300 244° Southwest 147 169 7,600 -244 Descending Salt Lake Center
Thu 10:07:23 AM 44.6050 -108.8753 230° Southwest 147 169 7,500 -341 Descending Salt Lake Center
Thu 10:08:25 AM 44.5797 -108.9192 231° Southwest 147 169 6,900 -732 Descending Salt Lake Center
Thu 10:09:26 AM 44.5550 -108.9639 232° Southwest 145 167 6,000 -590 Descending Salt Lake Center
Thu 10:10:27 AM 44.5325 -109.0036 232° Southwest 145 167 5,700 -295 Descending Salt Lake Center

Login

Don't have an account? Register now (free) for customized features, flight alerts, and more!